Página principal
METAR-TAF:

METAR-TAF

Aeroportos :

Aeroporto Roland Garros

Saint-Denis, Reunião

latitude: 20-53S, longitude: 055-31E, altura: 21 m

Observação actual do tempo

O boletim foi feito há 33 minutos, às 23:00 UTC
Vento 11 kt de es-sudeste
Temperatura 21°C
Humidade 78%
Pressão 1020 hPa
Visibilidade 10 km ou mais

METAR: FMEE 222300Z AUTO 12011KT 9999 FEW054/// 21/17 Q1020 NOSIG

Hora: 03:33 (23:33 UTC)

Previsão

O boletim foi feito há 6 horas e 33 minutos, às 17:00 UTC
Previsão válida de 22 às 18 UTC a 23 às 24 UTC
Vento 10 kt de es-sudeste
Visibilidade 10 km ou mais
Poucas nuvensa uma altura de 2500 ft
Nuvens fragmentadasa uma altura de 5000 ft
Tornando-se
de 23 às 04 UTC a 23 às 06 UTC
Vento 20 kt de este
Tornando-se
de 23 às 14 UTC a 23 às 16 UTC
Vento 10 kt de su-sudeste

TAF: FMEE 221700Z 2218/2324 11010KT 9999 FEW025 BKN050 BECMG 2304/2306 10020KT BECMG 2314/2316 16010KT

Observações e previsões do tempo de mais de 4000 aeroportos (mensagens METAR e TAF).

As estações disponíveis são os pontos amarelos e vermelhos sobre o mapa.

Mova o rato sobre o mapa para ver o nome da estação.

Depois clique no ponto para visualizar as observações e previsões meteorológicas.

Para alterar o mapa : clique nos botões verdes com uma cruz preta para aumentar o zoom; no botão verde com uma pitada de zoom; ou nas setas verdes para mapas adjacentes.


METAR-TAF: